Home > Products > Valid Products > TAF

000
FTUS43 KEAX 301100
TAFMCI
TAF
KMCI 301123Z 3012/3112 01004KT P6SM SCT250
     FM301800 17005KT P6SM BKN200
     FM311000 17006KT P6SM -SHRA BKN020=



000
FTUS43 KEAX 301100
TAFSTJ
TAF
KSTJ 301123Z 3012/3112 01005KT P6SM SCT250
     FM301800 18005KT P6SM BKN200
     FM311000 17006KT P6SM -SHRA BKN020=



000
FTUS43 KEAX 301100
TAFMKC
TAF
KMKC 301123Z 3012/3112 01004KT P6SM SCT250
     FM301800 17005KT P6SM BKN200
     FM311000 17006KT P6SM -SHRA BKN020=



000
FTUS43 KEAX 301000 AAA
TAFSTJ
TAF AMD
KSTJ 301003Z 3010/3106 36005KT P6SM SKC
      TEMPO 3010/3012 1/2SM FG VV001
     FM301800 18005KT P6SM SCT250=



000
FTUS43 KEAX 300500
TAFMKC
TAF
KMKC 300533Z 3006/3106 36005KT P6SM SKC
     FM301800 19005KT P6SM SCT250=



000
FTUS43 KEAX 300500
TAFMCI
TAF
KMCI 300533Z 3006/3106 36005KT P6SM SKC
     FM301800 18005KT P6SM SCT250=



000
FTUS43 KEAX 300500
TAFSTJ
TAF
KSTJ 300533Z 3006/3106 36005KT P6SM SKC
     FM301800 18005KT P6SM SCT250=



000
FTUS43 KEAX 292300
TAFSTJ
TAF
KSTJ 292323Z 3000/3024 33014KT P6SM BKN035
     FM300100 36005KT P6SM FEW035
     FM301800 18005KT P6SM SCT250=



000
FTUS43 KEAX 292300
TAFMCI
TAF
KMCI 292323Z 3000/3024 34014KT P6SM BKN035
     FM300100 36005KT P6SM FEW035
     FM301800 18005KT P6SM SCT250=



000
FTUS43 KEAX 292300
TAFMKC
TAF
KMKC 292323Z 3000/3024 35014KT P6SM BKN035
     FM300100 36005KT P6SM FEW035
     FM301800 17005KT P6SM SCT250=



000
FTUS43 KEAX 291700
TAFSTJ
TAF
KSTJ 291720Z 2918/3018 34018G26KT P6SM BKN035
     FM292300 34011KT P6SM FEW035
     FM300300 34005KT P6SM SKC=



000
FTUS43 KEAX 291700
TAFMKC
TAF
KMKC 291720Z 2918/3018 34014G20KT P6SM BKN035
     FM292300 34009KT P6SM FEW035
     FM300300 34005KT P6SM SKC=



000
FTUS43 KEAX 291700
TAFMCI
TAF
KMCI 291720Z 2918/3018 34016G22KT P6SM BKN035
     FM292300 34010KT P6SM FEW035
     FM300300 34005KT P6SM SKC=



000
FTUS43 KEAX 291100
TAFMKC
TAF
KMKC 291121Z 2912/3012 33017G27KT P6SM OVC020
     FM291500 34012G22KT P6SM BKN025
     FM292200 34009KT P6SM FEW025
     FM300300 34005KT P6SM SKC=



000
FTUS43 KEAX 291100
TAFSTJ
TAF
KSTJ 291121Z 2912/3012 34018G28KT P6SM OVC022
     FM292200 34009KT P6SM FEW025
     FM300300 34005KT P6SM SKC=



000
FTUS43 KEAX 291100
TAFMCI
TAF
KMCI 291121Z 2912/3012 33020G30KT P6SM OVC018
     FM291500 34015G25KT P6SM BKN022
     FM292200 34009KT P6SM FEW025
     FM300300 34005KT P6SM SKC=



000
FTUS43 KEAX 290700 AAA
TAFSTJ
TAF AMD
KSTJ 290726Z 2907/3006 34020G30KT P6SM OVC020
     FM291700 34015G25KT P6SM SCT040
     FM292300 34009KT P6SM SCT050=



000
FTUS43 KEAX 290500
TAFMCI
TAF
KMCI 290520Z 2906/3006 32015G25KT P6SM SKC
     FM290800 33020G30KT P6SM OVC020
     FM291700 34015G25KT P6SM SCT040
     FM292300 34009KT P6SM SCT050=



000
FTUS43 KEAX 290500
TAFMKC
TAF
KMKC 290520Z 2906/3006 31012G20KT P6SM SKC
     FM290800 33015G25KT P6SM OVC022
     FM291700 34012G20KT P6SM SCT040
     FM292300 34007KT P6SM SCT050=



000
FTUS43 KEAX 290500
TAFSTJ
TAF
KSTJ 290520Z 2906/3006 32015G25KT P6SM SKC
     FM290800 33020G30KT P6SM OVC020
     FM291700 34015G25KT P6SM SCT040
     FM292300 34009KT P6SM SCT050=



000
FTUS43 KEAX 290400 AAA
TAFSTJ
TAF AMD
KSTJ 290423Z 2904/2924 31010KT P6SM FEW200
     FM290500 32012G20KT P6SM SKC
     FM290900 33020G30KT P6SM BKN020
     FM291900 34015G25KT P6SM SCT040=



000
FTUS43 KEAX 290400 AAA
TAFMKC
TAF AMD
KMKC 290422Z 2904/2924 25010KT P6SM FEW200
     FM290600 32012G20KT P6SM SKC
     FM290900 33015G25KT P6SM BKN020
     FM291900 34012G20KT P6SM SCT040=



000
FTUS43 KEAX 290400 AAA
TAFMCI
TAF AMD
KMCI 290421Z 2904/2924 25008KT P6SM FEW200
     FM290600 32012G20KT P6SM SKC
     FM290900 33020G30KT P6SM BKN020
     FM291900 34015G25KT P6SM SCT040=



000
FTUS43 KEAX 282300
TAFMKC
TAF
KMKC 282320Z 2900/2924 22012KT P6SM FEW200
     FM290500 32012G20KT P6SM SKC
     FM290900 33015G25KT P6SM BKN020
     FM291900 34012G20KT P6SM SCT040=



000
FTUS43 KEAX 282300
TAFMCI
TAF
KMCI 282320Z 2900/2924 21013KT P6SM FEW200
     FM290500 32012G20KT P6SM SKC
     FM290900 33020G30KT P6SM BKN020
     FM291900 34015G25KT P6SM SCT040=



000
FTUS43 KEAX 282300
TAFSTJ
TAF
KSTJ 282320Z 2900/2924 22010KT P6SM FEW200
     FM290500 32012G20KT P6SM SKC
     FM290900 33020G30KT P6SM BKN020
     FM291900 34015G25KT P6SM SCT040=



000
FTUS43 KEAX 281700
TAFSTJ
TAF
KSTJ 281720Z 2818/2918 20016G25KT P6SM SCT250
     FM282300 26009KT P6SM FEW200
     FM290400 31022G30KT P6SM BKN020=



000
FTUS43 KEAX 281700
TAFMKC
TAF
KMKC 281720Z 2818/2918 20015G23KT P6SM SCT250
     FM290000 25009KT P6SM FEW200
     FM290500 31018G25KT P6SM BKN020=



000
FTUS43 KEAX 281700
TAFMCI
TAF
KMCI 281720Z 2818/2918 20016G24KT P6SM SCT250
     FM290000 25010KT P6SM FEW200
     FM290500 31020G27KT P6SM BKN020=



000
FTUS43 KEAX 281100
TAFMCI
TAF
KMCI 281120Z 2812/2912 15015KT P6SM SCT200
     FM281600 19018G27KT P6SM SCT200
     FM290200 25014G22KT P6SM FEW200
     FM290500 31018G27KT P6SM BKN050=



000
FTUS43 KEAX 281100
TAFMKC
TAF
KMKC 281120Z 2812/2912 15010KT P6SM SCT200
     FM281700 20016G24KT P6SM SCT200
     FM290200 25012G19KT P6SM FEW200
     FM290500 31016G25KT P6SM BKN050=



000
FTUS43 KEAX 281100
TAFSTJ
TAF
KSTJ 281120Z 2812/2912 15011KT P6SM SCT200
     FM281700 20017G25KT P6SM SCT200
     FM290200 31022G32KT P6SM BKN050=



000
FTUS43 KEAX 280500
TAFMKC
TAF
KMKC 280521Z 2806/2906 14008KT P6SM SKC
     FM281700 20012G20KT P6SM FEW200
     FM290000 25011KT P6SM FEW200=



000
FTUS43 KEAX 280500
TAFSTJ
TAF
KSTJ 280521Z 2806/2906 14008KT P6SM SKC
     FM281700 19012G20KT P6SM FEW200
     FM290000 25011KT P6SM FEW200=



000
FTUS43 KEAX 280500
TAFMCI
TAF
KMCI 280521Z 2806/2906 14012KT P6SM SKC
     FM281700 19015G25KT P6SM FEW200
     FM290000 25012KT P6SM FEW200=



000
FTUS43 KEAX 272300
TAFSTJ
TAF
KSTJ 272320Z 2800/2824 12009KT P6SM SKC
     FM281500 19015G25KT P6SM SCT150=



000
FTUS43 KEAX 272300
TAFMCI
TAF
KMCI 272320Z 2800/2824 13011KT P6SM SKC
     FM281500 19015G25KT P6SM SCT150=



000
FTUS43 KEAX 272300
TAFMKC
TAF
KMKC 272320Z 2800/2824 12008KT P6SM SKC
     FM281500 18012G20KT P6SM SCT150=



000
FTUS43 KEAX 271700
TAFSTJ
TAF
KSTJ 271725Z 2718/2818 13008KT P6SM SKC
     FM281700 19013G19KT P6SM SKC=



000
FTUS43 KEAX 271700
TAFMKC
TAF
KMKC 271725Z 2718/2818 13006KT P6SM SKC
     FM281600 19013G19KT P6SM SKC=



000
FTUS43 KEAX 271700
TAFMCI
TAF
KMCI 271725Z 2718/2818 13007KT P6SM SKC
     FM281600 19014G20KT P6SM SKC=



    US Dept of Commerce
    National Oceanic and Atmospheric Administration
    National Weather Service
    1325 East West Highway
    Silver Spring, MD 20910
    Page Author: NWS Internet Services Team
Disclaimer
Information Quality
Credits
Glossary
Privacy Policy
Freedom of Information Act (FOIA)
About Us
Career Opportunities